Share

Dana, IA (50064)

Lohrville NE (KIALOHRV5) Elev 1170 ft | 42.28 °N, 94.49 °W | Change Station

Current weather conditions updated 3 seconds ago

Clear
Clear
64.4 °F
Feels Like 64.4 °F
N
8.3
Wind Variable Wind from SSE
Gusts 13.0 mph
Sunrise 6:28 AM
Sunset 8:03 PM
Moon Waning Gibbous

Tomorrow is forecast to be Much Cooler than today. Morning thundershowers.

Pressure 29.96 in
Visibility 10.0 miles
Clouds Clear
Dew Point 52 °F
Humidity 65%
Rainfall 0.00 in
Snow Depth Not available.
UV 0 out of 16
Pollen 9.70 out of 12
Air Quality Not available.
Flu Activity Sporadic
METAR KPRO 210335Z AUTO 23007KT 10SM CLR 19/11 A2996 RMK AO2 T01850113

More Conditions Fewer Conditions

Pressure 29.96 in
Visibility 10.0 miles
Clouds Clear
Dew Point 52 °F
Humidity 65%
Rainfall 0.00 in
Snow Depth Not available.
UV 0 out of 16
Pollen 9.70 out of 12
Air Quality Not available.
Flu Activity Sporadic
METAR KPRO 210335Z AUTO 23007KT 10SM CLR 19/11 A2996 RMK AO2 T01850113

More Conditions Fewer Conditions

10-Day Weather Forecast

Almanac

Astronomy

Apr. 20, 2014 Rise Set
Actual Time 6:28 AM CDT 8:03 PM CDT
Civil Twilight 5:59 AM CDT 8:33 PM CDT
Nautical Twilight 5:23 AM CDT 9:09 PM CDT
Astronomical Twilight 4:45 AM CDT 9:47 PM CDT
Moon 12:46 AM CDT (4/20) 10:47 AM CDT (4/20)
Length of Visible Light 14h 34m
Length of Day
13h 35m
Tomorrow will be 2m 38s longer.
Waning Gibbous, 63% of the Moon is Illuminated
Today
Waning Gibbous
Apr 22
Last Quarter
Apr 29
New
May 6
First Quarter
May 14
Full

Today's Extremes

State Highs State Lows

Community

  • Snowy Robin
    Snowy Robin
  • Sun Pillar and Geese
    Sun Pillar and Geese
  • Showers on the Way
    Showers on the Way
  • Easter Morning Fog
    Easter Morning Fog
  • Easter Dance
    Easter Dance

WunderPhotos

Upload Photos

1,703,546 photos uploaded!

WunderBlogs® & News

Nearby

Snow Depth

Station Depth Elevation
No new snow has been reported.

Coastal Water Temperatures

Place Temperature
No Stations Reporting

Earthquake Activity

City Distance Mag. Time & Date
No recent earthquake activity has been reported nearby.
Minimum magnitude displayed is 2.5.

Nearby Weather Stations

Station Location Temp. Heat Index Dew Point Humidity Wind Precip. Elev Updated Type
MesoWest BEAVR1 , Beaver, IA 75 °F 73 °F - - North  at  - 0.00 in / hr 1035 ft 7:00 PM CDT MADIS
MesoWest BOONWS , Boone, IA 68 °F - - - North  at  - 0.00 in / hr 1049 ft 10:00 PM CDT MADIS
MesoWest SCRAN1 , Scranton, IA 73 °F 71 °F - - North  at  - 0.00 in / hr 1182 ft 8:05 PM CDT MADIS
Lohrville NE, Lohrville, IA 64.4 °F - 52 °F 65% SSE  at  8.3 mph 0.00 in / hr 1170 ft 10:48 PM CDT Rapid Fire
Lohrville, IA 65.5 °F - 53 °F 65% South  at  6.3 mph - / hr 1150 ft 10:44 PM CDT Normal

Show More Stations Show Fewer Stations

What do you think?

We're not finished. Please let us know what you like, what you don't like, and what you are still missing.